createdAt,value
2019-06-08T00:02:01.926Z,0.70
2019-06-08T00:06:57.079Z,0.93
2019-06-08T00:11:52.556Z,1.20
2019-06-08T00:16:47.518Z,1.20
2019-06-08T00:21:42.550Z,0.90
2019-06-08T00:26:37.542Z,1.20
2019-06-08T00:31:32.528Z,1.03
2019-06-08T00:36:30.631Z,1.57
2019-06-08T00:41:25.542Z,1.10
2019-06-08T00:46:21.406Z,1.13
2019-06-08T00:51:16.809Z,1.07
2019-06-08T00:56:11.701Z,1.30
2019-06-08T01:01:06.566Z,1.00
2019-06-08T01:06:01.703Z,1.30
2019-06-08T01:10:56.595Z,1.17
2019-06-08T01:15:52.122Z,0.90
2019-06-08T01:20:47.323Z,1.10
2019-06-08T01:25:42.174Z,1.10
2019-06-08T01:30:37.017Z,0.93
2019-06-08T01:35:31.981Z,1.20
2019-06-08T01:40:27.497Z,1.00
2019-06-08T01:45:32.882Z,1.37
2019-06-08T01:50:28.820Z,1.20
2019-06-08T01:55:25.062Z,1.30
2019-06-08T02:00:29.787Z,1.10
2019-06-08T02:05:17.367Z,1.50
2019-06-08T02:10:12.394Z,1.20
2019-06-08T02:15:07.959Z,1.23
2019-06-08T02:20:02.884Z,1.10
2019-06-08T02:24:58.136Z,1.03
2019-06-08T02:29:53.048Z,1.10
2019-06-08T02:34:48.015Z,1.00
2019-06-08T02:39:43.399Z,1.00
2019-06-08T02:44:38.356Z,1.20
2019-06-08T02:49:33.332Z,0.97
2019-06-08T02:54:30.146Z,1.27
2019-06-08T02:59:29.290Z,1.00
2019-06-08T03:04:26.682Z,1.33
2019-06-08T03:09:22.206Z,1.17
2019-06-08T03:14:19.405Z,0.83
2019-06-08T03:19:21.569Z,1.10
2019-06-08T03:24:10.969Z,1.00
2019-06-08T03:29:05.974Z,1.30
2019-06-08T03:34:00.901Z,0.80
2019-06-08T03:38:55.807Z,1.27
2019-06-08T03:43:50.776Z,1.23
2019-06-08T03:48:46.499Z,1.10
2019-06-08T03:53:42.651Z,1.00
2019-06-08T03:58:38.988Z,0.80
2019-06-08T04:03:34.977Z,1.20
2019-06-08T04:08:29.890Z,1.27
2019-06-08T04:13:28.334Z,1.03
2019-06-08T04:18:23.266Z,1.10
2019-06-08T04:23:18.187Z,1.10
2019-06-08T04:28:13.132Z,1.17
2019-06-08T04:33:08.051Z,1.07
2019-06-08T04:38:03.012Z,1.00
2019-06-08T04:42:57.979Z,1.03
2019-06-08T04:47:53.209Z,1.00
2019-06-08T04:52:49.891Z,1.27
2019-06-08T04:57:47.589Z,0.90
2019-06-08T05:02:44.745Z,1.20
2019-06-08T05:07:41.575Z,1.60
2019-06-08T05:12:37.185Z,1.10
2019-06-08T05:17:32.088Z,1.37
2019-06-08T05:22:27.062Z,1.50
2019-06-08T05:27:23.964Z,1.00
2019-06-08T05:32:18.981Z,1.47
2019-06-08T05:37:13.940Z,1.50
2019-06-08T05:42:08.919Z,1.33
2019-06-08T05:47:03.870Z,1.57
2019-06-08T05:51:58.830Z,1.40
2019-06-08T05:56:53.773Z,1.70
2019-06-08T06:01:48.728Z,1.73
2019-06-08T06:06:44.596Z,1.73
2019-06-08T06:11:40.658Z,1.53
2019-06-08T06:16:36.636Z,1.57
2019-06-08T06:21:31.612Z,1.67
2019-06-08T06:26:27.496Z,2.00
2019-06-08T06:31:22.722Z,1.80
2019-06-08T06:36:17.829Z,1.97
2019-06-08T06:41:15.930Z,2.00
2019-06-08T06:46:17.214Z,1.80
2019-06-08T06:51:25.228Z,2.17
2019-06-08T06:56:08.814Z,1.90
2019-06-08T07:01:05.857Z,1.80
2019-06-08T07:06:00.763Z,1.53
2019-06-08T07:10:55.703Z,1.73
2019-06-08T07:15:58.288Z,2.07
2019-06-08T07:20:54.385Z,2.00
2019-06-08T07:25:50.523Z,1.70
2019-06-08T07:30:48.870Z,2.00
2019-06-08T07:35:44.082Z,1.90
2019-06-08T07:40:39.058Z,1.90
2019-06-08T07:45:35.027Z,1.70
2019-06-08T07:50:30.023Z,1.40
2019-06-08T07:55:24.939Z,1.60
2019-06-08T08:00:20.005Z,1.60
2019-06-08T08:05:15.250Z,1.50
2019-06-08T08:10:10.620Z,1.67
2019-06-08T08:15:06.010Z,1.50
2019-06-08T08:20:00.874Z,1.67
2019-06-08T08:25:02.271Z,1.77
2019-06-08T08:30:00.551Z,1.80
2019-06-08T08:34:58.716Z,1.53
2019-06-08T08:39:51.852Z,1.37
2019-06-08T08:44:51.031Z,1.30
2019-06-08T08:49:47.853Z,1.43
2019-06-08T08:54:42.867Z,1.53
2019-06-08T08:59:38.303Z,2.13
2019-06-08T09:04:39.768Z,1.40
2019-06-08T09:09:34.646Z,1.50
2019-06-08T09:14:29.571Z,1.70
2019-06-08T09:19:24.502Z,2.23
2019-06-08T09:24:19.665Z,2.47
2019-06-08T09:29:14.602Z,1.73
2019-06-08T09:34:14.984Z,1.40
2019-06-08T09:39:11.231Z,1.30
2019-06-08T09:44:05.968Z,2.00
2019-06-08T09:49:07.689Z,1.30
2019-06-08T09:54:02.090Z,1.40
2019-06-08T09:58:57.386Z,1.30
2019-06-08T10:03:52.325Z,1.60
2019-06-08T10:08:48.034Z,2.20
2019-06-08T10:13:43.471Z,1.47
2019-06-08T10:18:38.731Z,1.40
2019-06-08T10:23:34.719Z,1.70
2019-06-08T10:28:29.726Z,1.20
2019-06-08T10:33:24.466Z,1.50
2019-06-08T10:38:19.208Z,1.37
2019-06-08T10:43:13.952Z,1.50
2019-06-08T10:48:09.678Z,1.33
2019-06-08T10:53:06.462Z,1.77
2019-06-08T10:58:02.299Z,1.40
2019-06-08T11:03:00.353Z,1.30
2019-06-08T11:07:53.562Z,1.57
2019-06-08T11:12:49.316Z,1.43
2019-06-08T11:17:44.051Z,1.37
2019-06-08T11:22:38.819Z,1.37
2019-06-08T11:27:33.557Z,1.57
2019-06-08T11:32:28.303Z,1.60
2019-06-08T11:37:23.058Z,1.80
2019-06-08T11:42:19.166Z,1.87
2019-06-08T11:47:14.291Z,1.30
2019-06-08T11:52:11.088Z,1.60
2019-06-08T11:57:08.457Z,3.00
2019-06-08T12:02:03.530Z,2.00
2019-06-08T12:06:58.564Z,1.50
2019-06-08T12:11:53.311Z,1.57
2019-06-08T12:16:48.552Z,1.90
2019-06-08T12:21:43.475Z,1.40
2019-06-08T12:26:40.283Z,1.63
2019-06-08T12:31:35.023Z,1.60
2019-06-08T12:36:30.766Z,1.37
2019-06-08T12:41:25.588Z,1.30
2019-06-08T12:46:21.570Z,1.40
2019-06-08T12:51:19.050Z,1.50
2019-06-08T12:56:13.567Z,1.30
2019-06-08T13:01:11.054Z,1.60
2019-06-08T13:06:07.883Z,1.50
2019-06-08T13:11:02.518Z,1.40
2019-06-08T13:15:58.026Z,1.47
2019-06-08T13:20:52.885Z,1.30
2019-06-08T13:25:48.145Z,1.43
2019-06-08T13:30:43.320Z,1.47
2019-06-08T13:35:44.182Z,1.83
2019-06-08T13:40:40.296Z,1.33
2019-06-08T13:45:35.221Z,1.43
2019-06-08T13:50:30.344Z,1.50
2019-06-08T13:55:46.920Z,1.47
2019-06-08T14:00:32.633Z,1.70
2019-06-08T14:05:30.977Z,1.37
2019-06-08T14:10:33.939Z,1.37
2019-06-08T14:15:29.152Z,1.40
2019-06-08T14:20:32.500Z,1.10
2019-06-08T14:25:24.859Z,1.40
2019-06-08T14:30:22.133Z,1.40
2019-06-08T14:35:18.682Z,1.40
2019-06-08T14:40:14.426Z,1.23
2019-06-08T14:45:10.887Z,1.73
2019-06-08T14:50:07.984Z,1.63
2019-06-08T14:55:03.044Z,1.70
2019-06-08T14:59:59.987Z,1.40
2019-06-08T15:04:54.645Z,1.40
2019-06-08T15:09:49.558Z,1.20
2019-06-08T15:14:44.522Z,1.50
2019-06-08T15:19:42.981Z,1.43
2019-06-08T15:24:38.065Z,1.77
2019-06-08T15:29:33.029Z,1.53
2019-06-08T15:34:30.115Z,1.67
2019-06-08T15:39:26.116Z,1.43
2019-06-08T15:44:24.259Z,1.60
2019-06-08T15:49:18.969Z,1.37
2019-06-08T15:54:13.946Z,1.53
2019-06-08T15:59:09.390Z,1.87
2019-06-08T16:04:04.367Z,1.57
2019-06-08T16:08:59.389Z,1.47
2019-06-08T16:13:54.371Z,1.60
2019-06-08T16:18:49.314Z,1.40
2019-06-08T16:23:44.482Z,1.70
2019-06-08T16:28:45.535Z,2.00
2019-06-08T16:33:43.538Z,1.30
2019-06-08T16:38:38.354Z,1.40
2019-06-08T16:43:33.418Z,1.80
2019-06-08T16:48:28.317Z,1.37
2019-06-08T16:53:23.534Z,1.37
2019-06-08T16:58:18.421Z,1.97
2019-06-08T17:03:13.301Z,1.60
2019-06-08T17:08:09.145Z,1.40
2019-06-08T17:13:04.005Z,1.90
2019-06-08T17:17:58.939Z,1.47
2019-06-08T17:22:53.802Z,2.00
2019-06-08T17:27:48.647Z,1.73
2019-06-08T17:32:43.539Z,2.13
2019-06-08T17:37:39.976Z,1.90
2019-06-08T17:42:37.479Z,1.87
2019-06-08T17:47:32.517Z,1.87
2019-06-08T17:52:28.141Z,1.87
2019-06-08T17:57:23.198Z,1.60
2019-06-08T18:02:27.381Z,1.70
2019-06-08T18:07:17.141Z,1.80
2019-06-08T18:12:20.088Z,1.83
2019-06-08T18:17:17.474Z,1.40
2019-06-08T18:22:15.340Z,2.03
2019-06-08T18:27:07.888Z,1.67
2019-06-08T18:32:07.593Z,1.53
2019-06-08T18:37:02.421Z,1.20
2019-06-08T18:41:58.813Z,2.00
2019-06-08T18:46:53.711Z,1.40
2019-06-08T18:51:50.499Z,1.60
2019-06-08T18:56:48.670Z,2.10
2019-06-08T19:01:43.199Z,1.57
2019-06-08T19:06:40.554Z,1.67
2019-06-08T19:11:34.586Z,2.00
2019-06-08T19:16:29.350Z,1.80
2019-06-08T19:21:24.420Z,1.50
2019-06-08T19:26:19.183Z,1.93
2019-06-08T19:31:13.989Z,2.03
2019-06-08T19:36:08.785Z,2.07
2019-06-08T19:41:03.644Z,1.90
2019-06-08T19:45:58.752Z,1.83
2019-06-08T19:50:54.448Z,2.20
2019-06-08T19:55:53.849Z,2.00
2019-06-08T20:00:52.351Z,2.37
2019-06-08T20:05:45.377Z,2.10
2019-06-08T20:10:41.073Z,2.30
2019-06-08T20:15:43.471Z,2.40
2019-06-08T20:20:33.848Z,2.30
2019-06-08T20:25:28.855Z,2.07
2019-06-08T20:30:28.182Z,1.90
2019-06-08T20:35:24.227Z,2.03
2019-06-08T20:40:19.231Z,2.30
2019-06-08T20:45:14.172Z,1.90
2019-06-08T20:50:11.173Z,1.80
2019-06-08T20:55:07.778Z,2.00
2019-06-08T21:00:08.496Z,1.80
2019-06-08T21:05:01.357Z,1.90
2019-06-08T21:09:58.133Z,2.33
2019-06-08T21:14:54.228Z,2.10
2019-06-08T21:19:50.888Z,1.73
2019-06-08T21:24:49.409Z,1.90
2019-06-08T21:29:49.194Z,2.93
2019-06-08T21:34:39.145Z,2.50
2019-06-08T21:39:36.683Z,2.30
2019-06-08T21:44:30.782Z,2.40
2019-06-08T21:49:27.747Z,1.77
2019-06-08T21:54:22.341Z,2.20
2019-06-08T22:04:13.710Z,2.00
2019-06-08T22:09:09.452Z,1.93
2019-06-08T22:14:04.399Z,2.10
2019-06-08T22:19:00.849Z,2.20
2019-06-08T22:23:57.838Z,2.40
2019-06-08T22:28:53.487Z,2.70
2019-06-08T22:33:48.473Z,2.50
2019-06-08T22:38:43.520Z,2.70
2019-06-08T22:43:38.289Z,3.30
2019-06-08T22:48:33.265Z,3.00
2019-06-08T22:53:28.152Z,2.30
2019-06-08T22:58:23.007Z,2.23
2019-06-08T23:03:24.308Z,2.93
2019-06-08T23:08:19.210Z,2.47
2019-06-08T23:13:14.095Z,2.73
2019-06-08T23:18:09.410Z,2.60
2019-06-08T23:23:06.434Z,2.30
2019-06-08T23:28:03.284Z,2.30
2019-06-08T23:33:01.060Z,2.60
2019-06-08T23:37:54.588Z,2.50
2019-06-08T23:42:49.532Z,2.57
2019-06-08T23:47:44.524Z,2.30
2019-06-08T23:52:39.498Z,2.73
2019-06-08T23:57:34.545Z,2.40
